createdAt,value
2022-12-23T00:02:12.941Z,98796.27
2022-12-23T00:07:14.500Z,98799.52
2022-12-23T00:12:34.849Z,98805.59
2022-12-23T00:17:40.144Z,98813.91
2022-12-23T00:23:00.378Z,98815.87
2022-12-23T00:28:01.718Z,98823.13
2022-12-23T00:33:03.209Z,98826.23
2022-12-23T00:38:04.592Z,98827.07
2022-12-23T00:43:05.886Z,98825.23
2022-12-23T00:48:26.171Z,98832.97
2022-12-23T00:53:27.481Z,98834.67
2022-12-23T00:58:31.215Z,98839.59
2022-12-23T01:03:51.155Z,98844.35
2022-12-23T01:08:52.437Z,98847.30
2022-12-23T01:13:53.987Z,98843.77
2022-12-23T01:18:56.411Z,98839.89
2022-12-23T01:23:57.628Z,98836.92
2022-12-23T01:28:59.639Z,98843.45
2022-12-23T01:34:00.964Z,98841.90
2022-12-23T01:39:02.501Z,98847.52
2022-12-23T01:44:42.419Z,98858.22
2022-12-23T01:49:46.129Z,98864.09
2022-12-23T01:54:47.716Z,98870.91
2022-12-23T02:00:08.117Z,98874.38
2022-12-23T02:05:09.397Z,98876.55
2022-12-23T02:10:11.012Z,98873.20
2022-12-23T02:15:36.841Z,98876.29
2022-12-23T02:21:15.803Z,98876.61
2022-12-23T02:26:54.938Z,98872.67
2022-12-23T02:32:07.372Z,98870.77
2022-12-23T02:37:30.001Z,98874.42
2022-12-23T02:42:37.965Z,98875.58
2022-12-23T02:47:54.337Z,98876.52
2022-12-23T02:53:01.121Z,98872.95
2022-12-23T02:58:07.562Z,98878.41
2022-12-23T03:03:09.892Z,98884.85
2022-12-23T03:08:32.690Z,98887.27
2022-12-23T03:14:12.166Z,98883.58
2022-12-23T03:19:31.742Z,98877.59
2022-12-23T03:24:57.803Z,98874.33
2022-12-23T03:30:04.503Z,98882.84
2022-12-23T03:35:09.558Z,98879.72
2022-12-23T03:40:18.785Z,98880.96
2022-12-23T03:45:40.452Z,98885.79
2022-12-23T03:50:43.525Z,98891.77
2022-12-23T03:55:51.368Z,98888.58
2022-12-23T04:01:01.096Z,98885.59
2022-12-23T04:06:06.740Z,98887.54
2022-12-23T04:11:08.141Z,98891.08
2022-12-23T04:16:09.886Z,98894.56
2022-12-23T04:21:11.163Z,98889.02
2022-12-23T04:26:12.452Z,98879.14
2022-12-23T04:31:13.866Z,98877.05
2022-12-23T04:36:15.272Z,98878.65
2022-12-23T04:41:16.549Z,98886.40
2022-12-23T04:46:17.834Z,98889.16
2022-12-23T04:51:19.227Z,98886.13
2022-12-23T04:56:20.863Z,98892.96
2022-12-23T05:01:22.219Z,98896.85
2022-12-23T05:06:23.837Z,98898.25
2022-12-23T05:11:25.400Z,98893.63
2022-12-23T05:16:26.714Z,98891.73
2022-12-23T05:21:28.182Z,98889.56
2022-12-23T05:26:29.506Z,98887.84
2022-12-23T05:31:31.727Z,98893.54
2022-12-23T05:36:33.217Z,98893.89
2022-12-23T05:41:34.471Z,98901.30
2022-12-23T05:46:35.905Z,98894.63
2022-12-23T05:51:37.203Z,98897.02
2022-12-23T05:56:38.446Z,98898.40
2022-12-23T06:01:39.871Z,98899.20
2022-12-23T06:06:41.528Z,98908.51
2022-12-23T06:11:42.810Z,98912.84
2022-12-23T06:16:44.272Z,98912.39
2022-12-23T06:21:45.507Z,98917.92
2022-12-23T06:26:48.792Z,98926.77
2022-12-23T06:31:53.418Z,98927.48
2022-12-23T06:36:54.984Z,98930.64
2022-12-23T06:41:56.250Z,98940.45
2022-12-23T06:46:57.637Z,98936.40
2022-12-23T06:51:58.971Z,98933.23
2022-12-23T06:57:00.539Z,98945.61
2022-12-23T07:02:02.920Z,98950.20
2022-12-23T07:07:04.521Z,98943.70
2022-12-23T07:12:06.015Z,98945.06
2022-12-23T07:17:07.351Z,98949.79
2022-12-23T07:22:09.726Z,98954.46
2022-12-23T07:27:11.236Z,98948.56
2022-12-23T07:32:12.607Z,98948.61
2022-12-23T07:37:13.898Z,98948.04
2022-12-23T07:47:36.409Z,98953.47
2022-12-23T07:52:37.871Z,98956.17
2022-12-23T07:57:39.981Z,98964.20
2022-12-23T08:02:41.903Z,98964.98
2022-12-23T08:07:49.020Z,98963.52
2022-12-23T08:12:50.364Z,98955.69
2022-12-23T08:17:51.588Z,98950.45
2022-12-23T08:22:54.221Z,98949.11
2022-12-23T08:27:55.616Z,98950.30
2022-12-23T08:32:56.969Z,98960.88
2022-12-23T08:37:58.244Z,98965.31
2022-12-23T08:42:59.626Z,98963.95
2022-12-23T08:48:02.583Z,98964.73
2022-12-23T08:53:04.836Z,98969.73
2022-12-23T08:58:07.502Z,98972.02
2022-12-23T09:03:08.952Z,98964.86
2022-12-23T09:08:10.492Z,98962.02
2022-12-23T09:13:19.966Z,98963.67
2022-12-23T09:18:26.388Z,98964.09
2022-12-23T09:23:27.706Z,98963.02
2022-12-23T09:28:28.968Z,98960.56
2022-12-23T09:33:30.688Z,98961.13
2022-12-23T09:38:33.659Z,98960.56
2022-12-23T09:43:38.005Z,98950.81
2022-12-23T09:48:46.952Z,98952.79
2022-12-23T09:54:16.823Z,98956.76
2022-12-23T09:59:27.340Z,98954.25
2022-12-23T10:05:06.620Z,98950.69
2022-12-23T10:10:24.888Z,98946.84
2022-12-23T10:15:46.994Z,98940.52
2022-12-23T10:21:06.717Z,98937.57
2022-12-23T10:26:38.611Z,98932.77
2022-12-23T10:32:30.971Z,98926.86
2022-12-23T10:37:32.271Z,98917.43
2022-12-23T10:42:38.031Z,98907.23
2022-12-23T10:47:55.082Z,98907.05
2022-12-23T10:53:00.836Z,98909.23
2022-12-23T10:58:12.563Z,98904.20
2022-12-23T11:03:26.662Z,98896.73
2022-12-23T11:08:30.512Z,98890.03
2022-12-23T11:13:41.201Z,98886.61
2022-12-23T11:19:03.758Z,98880.33
2022-12-23T11:24:09.353Z,98875.83
2022-12-23T11:29:19.425Z,98871.47
2022-12-23T11:34:27.911Z,98861.95
2022-12-23T11:39:35.420Z,98857.63
2022-12-23T11:44:44.604Z,98857.67
2022-12-23T11:50:27.074Z,98852.08
2022-12-23T11:55:32.157Z,98853.10
2022-12-23T12:00:42.214Z,98861.67
2022-12-23T12:05:55.499Z,98871.63
2022-12-23T12:11:06.184Z,98875.36
2022-12-23T12:16:29.767Z,98878.86
2022-12-23T12:21:37.031Z,98888.29
2022-12-23T12:26:41.945Z,98883.52
2022-12-23T12:31:48.335Z,98882.73
2022-12-23T12:37:12.996Z,98881.87
2022-12-23T12:42:24.058Z,98885.98
2022-12-23T12:47:53.923Z,98888.67
2022-12-23T12:53:05.171Z,98889.52
2022-12-23T12:58:18.515Z,98885.55
2022-12-23T13:03:57.875Z,98882.25
2022-12-23T13:09:08.443Z,98887.43
2022-12-23T13:14:26.501Z,98891.29
2022-12-23T13:19:46.653Z,98898.92
2022-12-23T13:24:50.655Z,98895.64
2022-12-23T13:30:01.260Z,98897.85
2022-12-23T13:35:34.554Z,98898.06
2022-12-23T13:41:03.710Z,98890.61
2022-12-23T13:46:15.331Z,98887.51
2022-12-23T13:51:29.977Z,98887.31
2022-12-23T13:57:00.299Z,98892.04
2022-12-23T14:02:01.707Z,98890.52
2022-12-23T14:07:23.604Z,98889.86
2022-12-23T14:12:37.594Z,98887.81
2022-12-23T14:17:50.416Z,98888.81
2022-12-23T14:23:20.675Z,98886.55
2022-12-23T14:28:59.688Z,98885.66
2022-12-23T14:34:31.361Z,98892.42
2022-12-23T14:39:33.217Z,98890.50
2022-12-23T14:44:34.488Z,98885.38
2022-12-23T14:49:41.332Z,98886.90
2022-12-23T14:55:00.192Z,98896.98
2022-12-23T15:00:05.912Z,98901.95
2022-12-23T15:05:07.926Z,98905.83
2022-12-23T15:10:19.420Z,98908.01
2022-12-23T15:15:27.519Z,98910.59
2022-12-23T15:20:28.833Z,98919.15
2022-12-23T15:25:38.593Z,98917.69
2022-12-23T15:30:48.759Z,98915.27
2022-12-23T15:35:50.914Z,98910.70
2022-12-23T15:41:01.634Z,98919.08
2022-12-23T15:46:13.463Z,98925.40
2022-12-23T15:51:58.282Z,98939.70
2022-12-23T15:56:53.559Z,98946.88
2022-12-23T16:01:55.475Z,98942.61
2022-12-23T16:06:57.295Z,98937.57
2022-12-23T16:12:21.583Z,98939.91
2022-12-23T16:17:43.258Z,98943.44
2022-12-23T16:22:49.636Z,98947.65
2022-12-23T16:27:58.087Z,98949.83
2022-12-23T16:33:19.950Z,98948.64
2022-12-23T16:38:25.773Z,98945.06
2022-12-23T16:43:27.062Z,98946.67
2022-12-23T16:48:47.061Z,98946.55
2022-12-23T16:53:50.233Z,98949.41
2022-12-23T16:58:51.750Z,98954.70
2022-12-23T17:03:55.018Z,98963.59
2022-12-23T17:08:56.391Z,98966.91
2022-12-23T17:14:03.897Z,98968.75
2022-12-23T17:19:06.543Z,98961.34
2022-12-23T17:24:26.918Z,98963.96
2022-12-23T17:29:28.471Z,98971.71
2022-12-23T17:34:29.722Z,98971.50
2022-12-23T17:39:30.983Z,98970.22
2022-12-23T17:44:32.457Z,98973.25
2022-12-23T17:49:33.763Z,98968.48
2022-12-23T17:54:35.501Z,98961.97
2022-12-23T17:59:36.948Z,98951.11
2022-12-23T18:04:38.487Z,98949.16
2022-12-23T18:09:39.926Z,98950.05
2022-12-23T18:14:41.542Z,98954.40
2022-12-23T18:19:42.784Z,98964.89
2022-12-23T18:24:45.151Z,98972.69
2022-12-23T18:29:47.947Z,98976.29
2022-12-23T18:34:49.531Z,98979.06
2022-12-23T18:39:50.827Z,98979.07
2022-12-23T18:44:52.163Z,98975.09
2022-12-23T18:49:54.555Z,98981.15
2022-12-23T18:54:55.794Z,98990.48
2022-12-23T18:59:57.150Z,98999.73
2022-12-23T19:05:00.114Z,98995.11
2022-12-23T19:10:04.594Z,98995.70
2022-12-23T19:15:06.743Z,99001.33
2022-12-23T19:20:11.787Z,99011.13
2022-12-23T19:25:18.775Z,99021.04
2022-12-23T19:30:20.378Z,99025.67
2022-12-23T19:35:21.955Z,99027.90
2022-12-23T19:40:23.227Z,99032.21
2022-12-23T19:45:24.555Z,99038.93
2022-12-23T19:50:27.081Z,99035.94
2022-12-23T19:55:28.400Z,99036.47
2022-12-23T20:00:29.627Z,99034.83
2022-12-23T20:05:30.914Z,99036.98
2022-12-23T20:10:32.131Z,99041.16
2022-12-23T20:15:33.465Z,99033.83
2022-12-23T20:20:36.146Z,99033.11
2022-12-23T20:25:37.457Z,99032.75
2022-12-23T20:30:39.177Z,99038.20
2022-12-23T20:35:41.138Z,99042.13
2022-12-23T20:40:42.421Z,99046.23
2022-12-23T20:45:45.558Z,99049.86
2022-12-23T20:50:47.987Z,99060.94
2022-12-23T20:55:49.257Z,99058.54
2022-12-23T21:00:51.600Z,99055.33
2022-12-23T21:05:56.335Z,99063.73
2022-12-23T21:10:57.735Z,99063.48
2022-12-23T21:16:01.252Z,99065.04
2022-12-23T21:21:04.502Z,99079.50
2022-12-23T21:26:25.974Z,99087.76
2022-12-23T21:31:29.698Z,99089.05
2022-12-23T21:36:34.307Z,99093.58
2022-12-23T21:41:38.017Z,99097.98
2022-12-23T21:46:39.292Z,99099.48
2022-12-23T21:51:41.725Z,99104.89
2022-12-23T21:56:43.569Z,99105.43
2022-12-23T22:01:45.316Z,99104.57
2022-12-23T22:06:46.683Z,99108.65
2022-12-23T22:11:48.143Z,99113.47
2022-12-23T22:16:50.903Z,99113.16
2022-12-23T22:21:52.290Z,99120.35
2022-12-23T22:26:55.341Z,99125.47
2022-12-23T22:31:56.625Z,99131.08
2022-12-23T22:36:59.463Z,99136.25
2022-12-23T22:42:00.736Z,99141.91
2022-12-23T22:47:02.526Z,99140.04
2022-12-23T22:52:04.091Z,99141.88
2022-12-23T22:57:05.422Z,99139.89
2022-12-23T23:02:06.704Z,99132.27
2022-12-23T23:07:08.343Z,99137.27
2022-12-23T23:12:09.562Z,99142.36
2022-12-23T23:17:10.848Z,99143.34
2022-12-23T23:22:12.178Z,99144.83
2022-12-23T23:27:14.361Z,99147.27
2022-12-23T23:32:15.703Z,99156.27
2022-12-23T23:37:17.275Z,99157.63
2022-12-23T23:42:18.599Z,99154.45
2022-12-23T23:47:19.908Z,99156.89
2022-12-23T23:52:21.211Z,99155.96
2022-12-23T23:57:22.835Z,99159.14
